Time;durP1;ratioP1;P1;durP2;ratioP2;P2;SDS_P1;SDS_P2;PMS_P1;PMS_P2;Temp;Humidity;BMP_temperature;BMP_pressure;BME280_temperature;BME280_humidity;BME280_pressure;Samples;Min_cycle;Max_cycle;Signal;HPM_P1;HPM_P2
2022/11/17 00:08:24;;;;;;;9.55;4.85;;;8.00;99.90;;;;;;6288924;22;20032;-95
2022/11/17 00:10:49;;;;;;;10.75;5.70;;;8.00;99.90;;;;;;6235230;23;20028;-94
2022/11/17 00:15:59;;;;;;;10.50;4.70;;;8.00;99.90;;;;;;6160124;23;20068;-89
2022/11/17 00:23:55;;;;;;;9.55;5.13;;;8.00;99.90;;;;;;6172258;23;20055;-87
2022/11/17 00:26:32;;;;;;;9.23;4.97;;;8.00;99.90;;;;;;6156053;23;20072;-93
2022/11/17 00:29:05;;;;;;;9.63;5.55;;;8.00;99.90;;;;;;6181742;23;20362;-93
2022/11/17 00:34:20;;;;;;;9.80;4.70;;;8.00;99.90;;;;;;6156190;23;20104;-87
2022/11/17 00:36:51;;;;;;;10.15;5.55;;;8.00;99.90;;;;;;6133001;23;20028;-92
2022/11/17 00:39:19;;;;;;;9.55;5.05;;;8.00;99.90;;;;;;6156729;23;20048;-87
2022/11/17 00:41:45;;;;;;;8.35;5.25;;;8.00;99.90;;;;;;6132661;23;20013;-94
2022/11/17 00:44:11;;;;;;;10.87;5.47;;;7.90;99.90;;;;;;6132089;23;20025;-93
2022/11/17 00:46:38;;;;;;;10.23;5.45;;;7.90;99.90;;;;;;6157009;23;20024;-92
2022/11/17 00:49:05;;;;;;;8.93;5.30;;;7.90;99.90;;;;;;6182674;23;20481;-86
2022/11/17 00:51:32;;;;;;;9.15;5.05;;;7.90;99.90;;;;;;6181984;22;20013;-89
2022/11/17 00:53:58;;;;;;;8.60;4.85;;;7.90;99.90;;;;;;6156832;23;20075;-92
2022/11/17 00:56:24;;;;;;;9.37;5.37;;;7.90;99.90;;;;;;6133100;23;20017;-88
2022/11/17 00:58:50;;;;;;;;;;;7.80;99.90;;;;;;6261015;22;20100;-89
2022/11/17 01:01:16;;;;;;;10.75;5.93;;;7.80;99.90;;;;;;6109855;23;19916;-91
2022/11/17 01:03:42;;;;;;;10.43;5.80;;;7.80;99.90;;;;;;6157966;23;20018;-90
2022/11/17 01:06:17;;;;;;;10.07;5.57;;;7.70;99.90;;;;;;6156713;23;20096;-90
2022/11/17 01:08:44;;;;;;;8.70;5.30;;;7.70;99.90;;;;;;6132127;23;20021;-90
2022/11/17 01:11:13;;;;;;;9.73;5.20;;;7.70;99.90;;;;;;6156816;23;20071;-95
2022/11/17 01:13:40;;;;;;;10.65;6.03;;;7.70;99.90;;;;;;6132107;23;20028;-86
2022/11/17 01:16:12;;;;;;;11.13;5.75;;;7.70;99.90;;;;;;6156827;22;20021;-92
2022/11/17 01:18:39;;;;;;;12.20;5.43;;;7.70;99.90;;;;;;6156811;23;20021;-87
2022/11/17 01:21:06;;;;;;;;;;;7.60;99.90;;;;;;6159012;23;20024;-92
2022/11/17 01:23:32;;;;;;;9.00;4.90;;;7.60;99.90;;;;;;6132675;23;19947;-86
2022/11/17 01:26:07;;;;;;;7.97;4.67;;;7.60;99.90;;;;;;6131874;23;20056;-88
2022/11/17 01:28:34;;;;;;;9.25;5.03;;;7.60;99.90;;;;;;6132428;23;20259;-87
2022/11/17 01:31:05;;;;;;;9.95;5.43;;;7.60;99.90;;;;;;6157346;23;20427;-91
2022/11/17 01:33:31;;;;;;;10.15;5.18;;;7.60;99.90;;;;;;6181766;23;20346;-88
2022/11/17 01:36:02;;;;;;;9.43;5.67;;;7.60;99.90;;;;;;6156760;23;20021;-88
2022/11/17 01:38:28;;;;;;;8.82;4.80;;;7.60;99.90;;;;;;6181652;23;20024;-86
2022/11/17 01:40:56;;;;;;;9.53;4.93;;;7.60;99.90;;;;;;6107996;23;20018;-87
2022/11/17 01:43:46;;;;;;;8.98;5.13;;;7.60;99.90;;;;;;6181602;23;20100;-86
2022/11/17 01:46:24;;;;;;;8.70;5.13;;;7.60;99.90;;;;;;6155943;23;20018;-87
2022/11/17 01:48:51;;;;;;;9.20;5.10;;;7.50;99.90;;;;;;6156241;23;20353;-88
2022/11/17 01:51:18;;;;;;;8.50;4.90;;;7.50;99.90;;;;;;6180806;22;20017;-86
2022/11/17 01:53:45;;;;;;;9.57;4.88;;;7.50;99.90;;;;;;6182769;23;20021;-95
2022/11/17 01:56:18;;;;;;;9.32;5.25;;;7.50;99.90;;;;;;6181257;23;20035;-89
2022/11/17 01:58:50;;;;;;;7.68;4.10;;;7.50;99.90;;;;;;6181483;23;20013;-95
2022/11/17 02:01:15;;;;;;;11.68;5.43;;;7.50;99.90;;;;;;6157364;23;20059;-95
2022/11/17 02:03:43;;;;;;;9.13;4.93;;;7.50;99.90;;;;;;6156939;23;20519;-86
2022/11/17 02:06:18;;;;;;;9.60;4.82;;;7.50;99.90;;;;;;6132398;23;20017;-92
2022/11/17 02:08:47;;;;;;;9.20;4.57;;;7.50;99.90;;;;;;6157344;23;20017;-94
2022/11/17 02:11:17;;;;;;;7.85;3.92;;;7.50;99.90;;;;;;6156712;23;20024;-89
2022/11/17 02:13:43;;;;;;;8.95;4.82;;;7.50;99.90;;;;;;6189342;23;20021;-87
2022/11/17 02:16:14;;;;;;;7.07;3.92;;;7.50;99.90;;;;;;6182845;23;20012;-85
2022/11/17 02:18:41;;;;;;;9.10;4.40;;;7.50;99.90;;;;;;6192516;23;20013;-88
2022/11/17 02:21:39;;;;;;;9.63;4.95;;;7.50;99.90;;;;;;6289343;22;20021;-87
2022/11/17 02:24:17;;;;;;;8.30;4.70;;;7.50;99.90;;;;;;6118221;23;20048;-90
2022/11/17 02:27:17;;;;;;;8.50;4.47;;;7.50;99.90;;;;;;6183846;23;20406;-88
2022/11/17 02:29:57;;;;;;;9.30;4.38;;;7.50;99.90;;;;;;6185388;23;20032;-87
2022/11/17 02:32:33;;;;;;;9.82;4.63;;;7.50;99.90;;;;;;6181943;23;20438;-87
2022/11/17 02:35:31;;;;;;;8.45;4.22;;;7.50;99.90;;;;;;6181368;23;20021;-87
2022/11/17 02:38:14;;;;;;;8.48;4.28;;;7.50;99.90;;;;;;6165169;23;20166;-87
2022/11/17 02:40:46;;;;;;;7.70;4.28;;;7.50;99.90;;;;;;6181132;23;20346;-86
2022/11/17 02:46:12;;;;;;;9.13;4.30;;;7.50;99.90;;;;;;6180990;23;20021;-86
2022/11/17 02:48:43;;;;;;;8.80;5.18;;;7.50;99.90;;;;;;6156879;23;20017;-87
2022/11/17 02:51:17;;;;;;;8.35;4.35;;;7.50;99.90;;;;;;6157134;23;20027;-93
2022/11/17 02:53:47;;;;;;;8.25;4.85;;;7.50;99.90;;;;;;6182401;23;20019;-86
2022/11/17 02:56:12;;;;;;;9.80;4.75;;;7.40;99.90;;;;;;6157528;23;20028;-96
2022/11/17 02:58:39;;;;;;;8.93;4.80;;;7.40;99.90;;;;;;6181700;23;20017;-90
2022/11/17 03:01:23;;;;;;;;;;;7.40;99.90;;;;;;6262841;22;20052;-90
2022/11/17 03:04:10;;;;;;;10.25;4.32;;;7.40;99.90;;;;;;6288877;22;19923;-88
2022/11/17 03:06:41;;;;;;;10.20;4.70;;;7.40;99.90;;;;;;6181782;23;20025;-96
2022/11/17 03:09:38;;;;;;;8.48;4.57;;;7.40;99.90;;;;;;6158344;23;20443;-96
2022/11/17 03:12:32;;;;;;;8.25;4.55;;;7.40;99.90;;;;;;6158040;23;20023;-88
2022/11/17 03:15:42;;;;;;;8.80;4.82;;;7.40;99.90;;;;;;6182818;23;20076;-88
2022/11/17 03:18:43;;;;;;;8.68;4.82;;;7.40;99.90;;;;;;6147808;23;20024;-96
2022/11/17 03:21:41;;;;;;;8.15;4.63;;;7.40;99.90;;;;;;6158528;23;20027;-93
2022/11/17 03:24:23;;;;;;;12.10;4.97;;;7.30;99.90;;;;;;6184687;23;20074;-88
2022/11/17 03:27:03;;;;;;;8.30;4.80;;;7.30;99.90;;;;;;6159189;23;20017;-95
2022/11/17 03:29:37;;;;;;;8.93;4.65;;;7.30;99.90;;;;;;6159873;23;20017;-89
2022/11/17 03:32:06;;;;;;;8.68;4.68;;;7.30;99.90;;;;;;6158858;23;20021;-87
2022/11/17 03:34:48;;;;;;;10.82;4.88;;;7.30;99.90;;;;;;6156988;23;20017;-91
2022/11/17 03:37:25;;;;;;;8.98;5.38;;;7.30;99.90;;;;;;6282904;22;20380;-94
2022/11/17 03:40:03;;;;;;;9.15;4.72;;;7.20;99.90;;;;;;6133572;23;20299;-88
2022/11/17 03:42:52;;;;;;;8.73;4.80;;;7.20;99.90;;;;;;6157169;23;20075;-88
2022/11/17 03:45:18;;;;;;;8.98;4.78;;;7.20;99.90;;;;;;6182965;23;20454;-91
2022/11/17 03:47:57;;;;;;;8.02;4.55;;;7.20;99.90;;;;;;6182433;23;20025;-90
2022/11/17 03:51:09;;;;;;;9.02;4.82;;;7.10;99.90;;;;;;6156940;23;20100;-89
2022/11/17 03:54:01;;;;;;;9.38;4.60;;;7.10;99.90;;;;;;6156703;23;20017;-93
2022/11/17 03:56:48;;;;;;;11.75;5.07;;;7.10;99.90;;;;;;6156579;23;20053;-92
2022/11/17 03:59:43;;;;;;;9.07;4.68;;;7.10;99.90;;;;;;6156739;23;20021;-89
2022/11/17 04:02:28;;;;;;;8.80;4.63;;;7.10;99.90;;;;;;6156593;23;20069;-93
2022/11/17 04:05:06;;;;;;;9.00;5.28;;;7.00;99.90;;;;;;6157933;22;20032;-89
2022/11/17 04:07:56;;;;;;;9.98;5.20;;;7.10;99.90;;;;;;6155591;23;20021;-90
2022/11/17 04:17:59;;;;;;;9.30;5.28;;;6.90;99.90;;;;;;6187400;23;20017;-92
2022/11/17 04:20:44;;;;;;;8.93;4.90;;;6.90;99.90;;;;;;6152731;23;20021;-91
2022/11/17 04:23:26;;;;;;;10.52;4.45;;;6.90;99.90;;;;;;6106985;23;20025;-92
2022/11/17 04:36:50;;;;;;;9.13;4.70;;;6.70;99.90;;;;;;6181555;22;20029;-88
2022/11/17 04:39:16;;;;;;;8.30;4.37;;;6.70;99.90;;;;;;6131870;23;20025;-94
2022/11/17 04:41:55;;;;;;;8.70;4.73;;;6.70;99.90;;;;;;6132214;23;20013;-90
2022/11/17 04:44:28;;;;;;;8.50;4.97;;;6.70;99.90;;;;;;6132084;23;20021;-94
2022/11/17 04:46:54;;;;;;;8.23;4.28;;;6.70;99.90;;;;;;6131516;23;20025;-91
2022/11/17 04:49:38;;;;;;;;;;;6.70;99.90;;;;;;6132953;23;20063;-91
2022/11/17 04:52:21;;;;;;;9.23;4.70;;;6.70;99.90;;;;;;6131023;23;19970;-90
2022/11/17 04:54:50;;;;;;;8.65;4.75;;;6.70;99.90;;;;;;6122284;23;20017;-92
2022/11/17 04:57:18;;;;;;;8.73;4.38;;;6.70;99.90;;;;;;6133537;23;20028;-91
2022/11/17 04:59:44;;;;;;;9.10;4.67;;;6.70;99.90;;;;;;6131315;23;20017;-90
2022/11/17 05:02:10;;;;;;;8.27;4.67;;;6.70;99.90;;;;;;6131720;23;20380;-91
2022/11/17 05:07:20;;;;;;;8.93;4.88;;;6.60;99.90;;;;;;6156172;23;20103;-91
2022/11/17 05:09:48;;;;;;;9.20;4.80;;;6.60;99.90;;;;;;6107543;23;20048;-92
2022/11/17 05:15:07;;;;;;;8.07;4.50;;;6.60;99.90;;;;;;6116349;23;20078;-91
2022/11/17 05:17:41;;;;;;;9.65;4.75;;;6.60;99.90;;;;;;6106536;23;20021;-91
2022/11/17 05:20:10;;;;;;;9.60;5.22;;;6.60;99.90;;;;;;6107257;23;20017;-90
2022/11/17 05:25:36;;;;;;;8.60;4.03;;;6.50;99.90;;;;;;6210524;23;20044;-92
2022/11/17 05:28:02;;;;;;;9.05;4.57;;;6.50;99.90;;;;;;6155348;23;20029;-90
2022/11/17 05:30:27;;;;;;;8.93;4.67;;;6.50;99.90;;;;;;6130960;23;20030;-94
2022/11/17 05:32:53;;;;;;;8.67;4.87;;;6.50;99.90;;;;;;6130641;23;20449;-91
2022/11/17 05:35:19;;;;;;;8.20;4.60;;;6.50;99.90;;;;;;6131279;23;20090;-93
2022/11/17 05:37:47;;;;;;;8.50;4.27;;;6.50;99.90;;;;;;6202651;22;20015;-88
2022/11/17 05:40:12;;;;;;;7.80;4.15;;;6.50;99.90;;;;;;6254882;22;20019;-91
2022/11/17 05:42:40;;;;;;;8.07;4.05;;;6.50;99.90;;;;;;6255568;22;20084;-91
2022/11/17 05:45:06;;;;;;;8.20;4.20;;;6.50;99.90;;;;;;6255529;22;20023;-91
2022/11/17 05:47:35;;;;;;;7.30;3.70;;;6.50;99.90;;;;;;6255369;22;20022;-89
2022/11/17 05:50:01;;;;;;;6.75;3.65;;;6.50;99.90;;;;;;6204957;22;20015;-91
2022/11/17 05:52:26;;;;;;;7.50;3.67;;;6.40;99.90;;;;;;6255330;22;20165;-90
2022/11/17 05:54:52;;;;;;;6.30;3.50;;;6.40;99.90;;;;;;6254914;22;20018;-90
2022/11/17 05:57:25;;;;;;;7.20;3.80;;;6.40;99.90;;;;;;6204717;22;20015;-91
2022/11/17 05:59:58;;;;;;;6.22;3.38;;;6.40;99.90;;;;;;6254912;22;20015;-91
2022/11/17 06:03:00;;;;;;;6.50;3.28;;;6.40;99.90;;;;;;6254989;22;20016;-89
2022/11/17 06:05:26;;;;;;;6.18;3.40;;;6.40;99.90;;;;;;6250593;22;20015;-90
2022/11/17 06:07:53;;;;;;;6.30;3.63;;;6.40;99.90;;;;;;6254117;22;20070;-92
2022/11/17 06:10:20;;;;;;;6.38;3.15;;;6.40;99.90;;;;;;6229290;22;20011;-90
2022/11/17 06:12:46;;;;;;;6.38;3.58;;;6.40;99.90;;;;;;6254142;22;20153;-88
2022/11/17 06:15:34;;;;;;;7.07;3.63;;;6.40;99.90;;;;;;6254466;22;20039;-89
2022/11/17 06:18:34;;;;;;;6.57;3.28;;;6.40;99.90;;;;;;6288284;22;20026;-88
2022/11/17 06:21:00;;;;;;;6.13;2.90;;;6.40;99.90;;;;;;6272510;22;20015;-89
2022/11/17 06:23:30;;;;;;;5.95;3.10;;;6.40;99.90;;;;;;6261768;22;20026;-90
2022/11/17 06:25:58;;;;;;;6.90;3.17;;;6.30;99.90;;;;;;6256341;22;20061;-89
2022/11/17 06:36:10;;;;;;;6.65;3.30;;;6.30;99.90;;;;;;6270902;22;20030;-87
2022/11/17 06:38:35;;;;;;;6.30;3.35;;;6.30;99.90;;;;;;6226351;22;20019;-90
2022/11/17 06:41:15;;;;;;;6.77;2.97;;;6.30;99.90;;;;;;6226149;22;20019;-92
2022/11/17 06:43:41;;;;;;;7.03;3.17;;;6.30;99.90;;;;;;6202701;22;20027;-87
2022/11/17 06:46:21;;;;;;;6.50;3.27;;;6.30;99.90;;;;;;6226157;22;20016;-91
2022/11/17 06:49:18;;;;;;;5.65;2.80;;;6.30;99.90;;;;;;6229407;22;20026;-92
2022/11/17 06:51:56;;;;;;;7.60;3.33;;;6.30;99.90;;;;;;6253518;22;20334;-92
2022/11/17 07:07:18;;;;;;;5.43;2.58;;;6.30;99.90;;;;;;6199887;22;20022;-91
2022/11/17 07:09:53;;;;;;;6.85;3.38;;;6.30;99.90;;;;;;6103995;23;20079;-95
2022/11/17 07:12:26;;;;;;;7.20;3.25;;;6.30;99.90;;;;;;6104159;23;20331;-91
2022/11/17 07:14:52;;;;;;;6.90;3.25;;;6.30;99.90;;;;;;6127941;23;20320;-94
2022/11/17 07:17:32;;;;;;;6.40;3.13;;;6.30;99.90;;;;;;6104104;23;20100;-96
2022/11/17 07:40:44;;;;;;;5.30;2.40;;;6.30;99.90;;;;;;6150839;22;20036;-91
2022/11/17 07:43:10;;;;;;;5.30;2.60;;;6.20;99.90;;;;;;6156571;23;20371;-89
2022/11/17 07:45:36;;;;;;;6.80;2.80;;;6.30;99.90;;;;;;6260377;22;20096;-89
2022/11/17 07:48:04;;;;;;;5.67;2.30;;;6.30;99.90;;;;;;6181191;23;20315;-94
2022/11/17 07:50:31;;;;;;;6.03;2.30;;;6.20;99.90;;;;;;6181685;23;20056;-89
2022/11/17 07:52:57;;;;;;;6.40;2.13;;;6.20;99.90;;;;;;6156037;23;20093;-89
2022/11/17 07:55:24;;;;;;;4.50;1.92;;;6.30;99.90;;;;;;6156053;23;20126;-88
2022/11/17 07:57:55;;;;;;;4.95;2.25;;;6.30;99.90;;;;;;6156237;23;20070;-93
2022/11/17 08:00:21;;;;;;;4.68;2.08;;;6.20;99.90;;;;;;6181545;23;20088;-91
2022/11/17 08:02:55;;;;;;;5.77;2.57;;;6.20;99.90;;;;;;6182166;22;20021;-94
2022/11/17 08:05:21;;;;;;;4.93;2.40;;;6.20;99.90;;;;;;6181931;22;20257;-94
2022/11/17 08:07:57;;;;;;;3.70;1.63;;;6.20;99.90;;;;;;6134020;23;20025;-91
2022/11/17 08:10:25;;;;;;;4.07;1.88;;;6.20;99.90;;;;;;6261478;22;20507;-93
2022/11/17 08:13:14;;;;;;;5.50;1.85;;;6.20;99.90;;;;;;6181585;22;20020;-90
2022/11/17 08:15:40;;;;;;;4.63;1.88;;;6.20;99.90;;;;;;6157836;23;20013;-92
2022/11/17 08:18:08;;;;;;;4.67;2.10;;;6.20;99.90;;;;;;6140095;23;20048;-90
2022/11/17 08:20:34;;;;;;;5.97;2.30;;;6.20;99.90;;;;;;6148870;23;20017;-93
2022/11/17 08:23:01;;;;;;;3.33;1.50;;;6.20;99.90;;;;;;6187671;22;20067;-92
2022/11/17 08:25:29;;;;;;;6.60;2.00;;;6.20;99.90;;;;;;6181246;23;20193;-93
2022/11/17 08:28:41;;;;;;;4.40;1.77;;;6.20;99.90;;;;;;6157082;23;20024;-91
2022/11/17 08:31:32;;;;;;;5.55;2.00;;;6.20;99.90;;;;;;6181729;23;20096;-90
2022/11/17 08:33:58;;;;;;;4.25;2.05;;;6.20;99.90;;;;;;6287204;22;20013;-88
2022/11/17 08:36:23;;;;;;;5.00;2.00;;;6.20;99.90;;;;;;6181449;23;20513;-90
2022/11/17 08:38:51;;;;;;;4.03;1.70;;;6.20;99.90;;;;;;6182287;22;20010;-91
2022/11/17 08:41:18;;;;;;;4.80;2.10;;;6.20;99.90;;;;;;6155007;23;20417;-91
2022/11/17 08:43:44;;;;;;;;;;;6.20;99.90;;;;;;6183014;23;20025;-94
2022/11/17 08:46:12;;;;;;;4.68;1.90;;;6.20;99.90;;;;;;6181371;22;20405;-96
2022/11/17 08:48:37;;;;;;;4.82;2.08;;;6.20;99.90;;;;;;6157429;23;20025;-90
2022/11/17 08:51:05;;;;;;;5.40;2.30;;;6.20;99.90;;;;;;6132421;23;20013;-92
2022/11/17 08:53:31;;;;;;;5.68;2.85;;;6.20;99.90;;;;;;6184178;23;20036;-91
2022/11/17 08:55:57;;;;;;;3.90;1.60;;;6.20;99.90;;;;;;6159650;23;20100;-92
2022/11/17 08:58:23;;;;;;;4.78;2.40;;;6.20;99.90;;;;;;6182473;22;20025;-89
2022/11/17 09:00:49;;;;;;;6.47;1.97;;;6.20;99.90;;;;;;6181351;22;20017;-91
2022/11/17 09:11:09;;;;;;;5.15;2.15;;;6.20;99.90;;;;;;6181813;23;20025;-92
2022/11/17 09:13:35;;;;;;;4.72;1.98;;;6.20;99.90;;;;;;6156721;23;20032;-90
2022/11/17 09:16:06;;;;;;;6.22;2.20;;;6.20;99.90;;;;;;6132482;23;20013;-89
2022/11/17 09:18:44;;;;;;;5.45;2.08;;;6.30;99.90;;;;;;6180594;23;20079;-91
2022/11/17 09:21:36;;;;;;;6.07;2.70;;;6.30;99.90;;;;;;6132399;23;20013;-92
2022/11/17 09:24:25;;;;;;;7.45;2.55;;;6.30;99.90;;;;;;6131382;23;20024;-93
2022/11/17 09:26:53;;;;;;;4.80;2.25;;;6.30;99.90;;;;;;6158383;23;20018;-88
2022/11/17 09:29:19;;;;;;;5.18;2.20;;;6.30;99.90;;;;;;6133142;23;20021;-92
2022/11/17 09:31:45;;;;;;;6.20;2.45;;;6.30;99.90;;;;;;6156341;23;20470;-91
2022/11/17 09:34:11;;;;;;;6.47;2.97;;;6.30;99.90;;;;;;6158571;23;20025;-93
2022/11/17 09:36:37;;;;;;;5.63;2.37;;;6.30;99.90;;;;;;6161611;23;20396;-90
2022/11/17 09:43:49;;;;;;;4.97;2.10;;;6.30;99.90;;;;;;6186207;23;20020;-88
2022/11/17 09:46:31;;;;;;;6.80;2.83;;;6.30;99.90;;;;;;6157474;23;20020;-92
2022/11/17 09:49:13;;;;;;;6.20;2.90;;;6.30;99.90;;;;;;6157287;23;20025;-90
2022/11/17 09:51:43;;;;;;;5.50;2.60;;;6.30;99.90;;;;;;6157183;23;20013;-93
2022/11/17 09:54:32;;;;;;;4.80;1.90;;;6.30;99.90;;;;;;6159726;23;20058;-91
2022/11/17 09:57:00;;;;;;;4.82;2.20;;;6.30;99.90;;;;;;6159654;23;20074;-89
2022/11/17 09:59:27;;;;;;;4.40;2.47;;;6.30;99.90;;;;;;6160060;23;20627;-90
2022/11/17 10:01:53;;;;;;;5.22;2.17;;;6.30;99.90;;;;;;6157639;23;20074;-92
2022/11/17 10:04:19;;;;;;;9.27;2.73;;;6.30;99.90;;;;;;6157534;23;20021;-92
2022/11/17 10:06:49;;;;;;;6.17;2.73;;;6.30;99.90;;;;;;6155501;23;20023;-92
2022/11/17 10:09:37;;;;;;;5.60;2.65;;;6.30;99.90;;;;;;6132794;23;20112;-88
2022/11/17 10:12:29;;;;;;;5.03;2.10;;;6.30;99.90;;;;;;6180834;23;20319;-90
2022/11/17 10:14:56;;;;;;;5.53;2.17;;;6.30;99.90;;;;;;6160897;23;20350;-90
2022/11/17 10:17:38;;;;;;;5.38;2.60;;;6.30;99.90;;;;;;6168502;23;20020;-89
2022/11/17 10:20:15;;;;;;;6.13;2.67;;;6.30;99.90;;;;;;6155314;23;20028;-92
2022/11/17 10:23:12;;;;;;;4.93;2.28;;;6.30;99.90;;;;;;6163224;23;20021;-91
2022/11/17 10:25:42;;;;;;;6.47;2.60;;;6.30;99.90;;;;;;6156395;23;20017;-90
2022/11/17 10:28:23;;;;;;;6.97;2.78;;;6.30;99.90;;;;;;6157124;23;20074;-94
2022/11/17 10:31:21;;;;;;;7.82;2.75;;;6.30;99.90;;;;;;6181561;23;20021;-90
2022/11/17 10:33:52;;;;;;;6.35;2.28;;;6.30;99.90;;;;;;6159669;23;20418;-93
2022/11/17 10:36:30;;;;;;;5.57;2.58;;;6.30;99.90;;;;;;6158145;23;20017;-91
2022/11/17 10:39:03;;;;;;;4.90;2.03;;;6.30;99.90;;;;;;6159081;23;20347;-94
2022/11/17 10:41:49;;;;;;;5.97;2.70;;;6.30;99.90;;;;;;6183412;23;20024;-95
2022/11/17 11:01:48;;;;;;;5.30;2.33;;;6.30;99.90;;;;;;6264009;22;20023;-95
2022/11/17 11:04:39;;;;;;;6.03;2.58;;;6.40;99.90;;;;;;6237517;22;20015;-93
2022/11/17 11:07:05;;;;;;;6.35;2.20;;;6.40;99.90;;;;;;6259614;22;20015;-89
2022/11/17 11:09:32;;;;;;;6.17;2.40;;;6.30;99.90;;;;;;6256929;22;20528;-93
2022/11/17 11:12:02;;;;;;;6.15;2.55;;;6.30;99.90;;;;;;6259321;22;20061;-89
2022/11/17 11:14:47;;;;;;;6.30;2.75;;;6.40;99.90;;;;;;6235178;22;20011;-93
2022/11/17 11:17:16;;;;;;;5.70;2.85;;;6.30;99.90;;;;;;6263092;22;20023;-93
2022/11/17 11:19:53;;;;;;;5.63;3.15;;;6.30;99.90;;;;;;6263288;22;20016;-95
2022/11/17 11:22:25;;;;;;;4.78;2.28;;;6.30;99.90;;;;;;6265489;22;20019;-91
2022/11/17 11:25:33;;;;;;;6.20;2.97;;;6.30;99.90;;;;;;6263088;22;20015;-96
2022/11/17 11:28:08;;;;;;;6.25;2.90;;;6.30;99.90;;;;;;6261133;22;20022;-94
2022/11/17 11:30:45;;;;;;;;;;;6.30;99.90;;;;;;6288342;22;20016;-92
2022/11/17 11:33:32;;;;;;;6.78;2.80;;;6.30;99.90;;;;;;6258398;22;20324;-92
2022/11/17 11:36:25;;;;;;;6.57;3.17;;;6.30;99.90;;;;;;6258929;22;20011;-94
2022/11/17 11:39:29;;;;;;;7.30;3.65;;;6.30;99.90;;;;;;6260369;22;20019;-93
2022/11/17 11:42:06;;;;;;;6.53;3.30;;;6.30;99.90;;;;;;6242836;22;20065;-95
2022/11/17 11:49:55;;;;;;;7.30;3.40;;;6.40;99.90;;;;;;6267393;22;20029;-91
2022/11/17 12:26:22;;;;;;;7.68;3.75;;;6.50;99.90;;;;;;6152410;22;20053;-90
2022/11/17 12:28:48;;;;;;;6.75;3.60;;;6.50;99.90;;;;;;6175589;23;20054;-91
2022/11/17 12:31:38;;;;;;;6.83;3.73;;;6.50;99.90;;;;;;6102038;23;20493;-88
2022/11/17 12:34:18;;;;;;;7.47;3.05;;;6.50;99.90;;;;;;6127095;23;20018;-89
2022/11/17 12:37:18;;;;;;;5.97;3.38;;;6.50;99.90;;;;;;6151313;23;20351;-91
2022/11/17 12:39:56;;;;;;;6.40;3.33;;;6.50;99.90;;;;;;6127328;23;20017;-91
2022/11/17 12:42:23;;;;;;;6.07;2.83;;;6.50;99.90;;;;;;6230513;23;20457;-91
2022/11/17 12:44:54;;;;;;;8.30;3.45;;;6.50;99.90;;;;;;6204417;23;20013;-91
2022/11/17 12:47:32;;;;;;;7.18;3.50;;;6.60;99.90;;;;;;6126410;23;20092;-91
2022/11/17 12:50:14;;;;;;;6.40;3.10;;;6.50;99.90;;;;;;6154480;22;20060;-93
2022/11/17 12:52:49;;;;;;;7.65;2.60;;;6.60;99.90;;;;;;6103566;23;20070;-87
2022/11/17 12:55:20;;;;;;;5.97;2.80;;;6.60;99.90;;;;;;6147092;23;20018;-92
2022/11/17 12:57:53;;;;;;;6.93;3.55;;;6.60;99.90;;;;;;6155886;23;20106;-88
2022/11/17 13:00:23;;;;;;;6.35;3.03;;;6.60;99.90;;;;;;6102146;23;20037;-89
2022/11/17 13:02:58;;;;;;;7.15;2.85;;;6.60;99.90;;;;;;6101656;23;20100;-89
2022/11/17 13:05:27;;;;;;;5.10;3.03;;;6.50;99.90;;;;;;6101836;23;20020;-89
2022/11/17 13:08:17;;;;;;;6.25;2.75;;;6.60;99.90;;;;;;6126268;23;20022;-88
2022/11/17 13:10:43;;;;;;;5.97;3.00;;;6.60;99.90;;;;;;6101934;23;20075;-90
2022/11/17 13:13:21;;;;;;;6.40;2.67;;;6.60;99.90;;;;;;6126603;23;20014;-90
2022/11/17 13:15:57;;;;;;;6.88;3.33;;;6.60;99.90;;;;;;6127261;23;20018;-90
2022/11/17 13:18:36;;;;;;;6.68;3.10;;;6.70;99.90;;;;;;6127195;23;20335;-88
2022/11/17 13:21:03;;;;;;;4.82;2.33;;;6.70;99.90;;;;;;6127096;23;20022;-89
2022/11/17 13:23:31;;;;;;;6.18;2.70;;;6.70;99.90;;;;;;6126970;23;20017;-92
2022/11/17 13:26:20;;;;;;;5.57;2.28;;;6.70;99.90;;;;;;6127060;23;20068;-90
2022/11/17 13:29:20;;;;;;;5.43;2.38;;;6.70;99.90;;;;;;6127430;23;20025;-89
2022/11/17 13:31:49;;;;;;;5.70;2.78;;;6.70;99.90;;;;;;6178201;23;20100;-89
2022/11/17 13:36:59;;;;;;;5.53;2.70;;;6.70;99.90;;;;;;6182881;23;20025;-92
2022/11/17 13:39:32;;;;;;;5.30;2.65;;;6.80;99.90;;;;;;6158487;23;20488;-91
2022/11/17 13:42:01;;;;;;;6.40;2.92;;;6.80;99.90;;;;;;6252902;22;20013;-89
2022/11/17 13:44:27;;;;;;;6.38;2.67;;;6.80;99.90;;;;;;6280180;22;20397;-90
2022/11/17 13:47:38;;;;;;;6.05;2.50;;;6.80;99.90;;;;;;6134139;23;20017;-91
2022/11/17 13:50:26;;;;;;;5.97;2.92;;;6.80;99.90;;;;;;6265240;22;20055;-91
2022/11/17 14:31:58;;;;;;;6.22;2.80;;;6.70;99.90;;;;;;6183636;23;20365;-91
2022/11/17 14:34:26;;;;;;;4.93;2.50;;;6.70;99.90;;;;;;6135436;23;20025;-89
2022/11/17 14:36:54;;;;;;;6.25;2.90;;;6.70;99.90;;;;;;6132594;23;20024;-93
2022/11/17 14:39:20;;;;;;;5.32;2.58;;;6.70;99.90;;;;;;6157481;23;20017;-89
2022/11/17 14:41:49;;;;;;;4.80;2.27;;;6.70;99.90;;;;;;6194090;22;20067;-90
2022/11/17 14:44:15;;;;;;;5.45;2.20;;;6.70;99.90;;;;;;6255414;22;20021;-91
2022/11/17 14:46:42;;;;;;;7.72;2.90;;;6.70;99.90;;;;;;6160734;22;20150;-92
2022/11/17 14:49:09;;;;;;;4.88;2.55;;;6.70;99.90;;;;;;6121248;23;20097;-92
2022/11/17 14:51:36;;;;;;;5.47;2.47;;;6.70;99.90;;;;;;6133195;23;20063;-89
2022/11/17 14:54:02;;;;;;;6.17;2.97;;;6.70;99.90;;;;;;6113778;23;20021;-85
2022/11/17 14:56:28;;;;;;;5.68;2.47;;;6.70;99.90;;;;;;6283857;22;20017;-89
2022/11/17 14:58:57;;;;;;;5.65;2.55;;;6.70;99.90;;;;;;6120932;23;20042;-90
2022/11/17 15:01:29;;;;;;;5.15;2.67;;;6.70;99.90;;;;;;6262286;22;20013;-88
2022/11/17 15:03:58;;;;;;;4.43;2.33;;;6.70;99.90;;;;;;6266326;22;20042;-88
2022/11/17 15:06:27;;;;;;;4.68;2.40;;;6.70;99.90;;;;;;6161149;23;20017;-88
2022/11/17 15:08:55;;;;;;;5.35;2.60;;;6.70;99.90;;;;;;6266754;22;20021;-92
2022/11/17 15:11:22;;;;;;;4.53;2.25;;;6.70;99.90;;;;;;6186720;23;20014;-94
2022/11/17 15:14:10;;;;;;;;;;;6.70;99.90;;;;;;6264204;22;20096;-90
2022/11/17 15:16:35;;;;;;;4.75;2.53;;;6.70;99.90;;;;;;6157273;23;19916;-93
2022/11/17 15:19:02;;;;;;;4.93;2.20;;;6.70;99.90;;;;;;6084228;23;20350;-92
2022/11/17 15:21:27;;;;;;;5.07;2.53;;;6.70;99.90;;;;;;6132616;23;20017;-91
2022/11/17 15:24:02;;;;;;;4.32;2.15;;;6.70;99.90;;;;;;6133271;23;20039;-91
2022/11/17 15:29:03;;;;;;;4.90;2.42;;;6.70;99.90;;;;;;6180194;23;20022;-89
2022/11/17 15:31:39;;;;;;;4.33;2.47;;;6.70;99.90;;;;;;6156879;23;20027;-90
2022/11/17 15:34:36;;;;;;;5.68;2.83;;;6.70;99.90;;;;;;6108190;23;20024;-90
2022/11/17 15:37:02;;;;;;;5.80;2.97;;;6.70;99.90;;;;;;6148350;23;20021;-92
2022/11/17 15:39:48;;;;;;;5.85;2.40;;;6.70;99.90;;;;;;6131204;23;20476;-93
2022/11/17 15:42:14;;;;;;;6.78;3.20;;;6.70;99.90;;;;;;6113012;23;20154;-89
2022/11/17 15:44:42;;;;;;;5.93;3.00;;;6.70;99.90;;;;;;6132998;23;20013;-89
2022/11/17 15:47:08;;;;;;;4.80;2.43;;;6.70;99.90;;;;;;6132899;23;20052;-88
2022/11/17 15:49:34;;;;;;;3.93;2.10;;;6.70;99.90;;;;;;6108514;23;20017;-96
2022/11/17 15:51:59;;;;;;;5.43;2.60;;;6.70;99.90;;;;;;6083129;23;20020;-87
2022/11/17 15:54:28;;;;;;;4.03;2.10;;;6.70;99.90;;;;;;6108133;23;20044;-92
2022/11/17 16:02:31;;;;;;;4.57;2.13;;;6.70;99.90;;;;;;6184049;23;20021;-90
2022/11/17 16:04:57;;;;;;;4.93;2.63;;;6.70;99.90;;;;;;6136673;23;20028;-96
2022/11/17 16:07:22;;;;;;;5.17;2.37;;;6.70;99.90;;;;;;6140135;23;20020;-90
2022/11/17 16:09:53;;;;;;;4.90;2.33;;;6.70;99.90;;;;;;6150999;22;20013;-93
2022/11/17 16:12:19;;;;;;;4.78;2.40;;;6.70;99.90;;;;;;6137863;23;20028;-91
2022/11/17 16:14:45;;;;;;;4.47;2.27;;;6.70;99.90;;;;;;6159494;23;20017;-90
2022/11/17 16:17:50;;;;;;;4.77;2.13;;;6.70;99.90;;;;;;6153023;22;20073;-87
2022/11/17 16:24:09;;;;;;;5.63;2.75;;;6.70;99.90;;;;;;6188566;23;20024;-93
2022/11/17 16:29:14;;;;;;;5.38;2.83;;;6.70;99.90;;;;;;6177459;23;20029;-88
2022/11/17 16:31:50;;;;;;;5.00;2.70;;;6.70;99.90;;;;;;6130700;23;20022;-93
2022/11/17 16:34:25;;;;;;;6.80;3.47;;;6.70;99.90;;;;;;6081566;23;20045;-89
2022/11/17 16:44:36;;;;;;;5.90;3.58;;;6.70;99.90;;;;;;6308830;22;20519;-90
2022/11/17 16:47:02;;;;;;;7.40;3.77;;;6.70;99.90;;;;;;6256304;22;20031;-89
2022/11/17 16:49:30;;;;;;;7.53;3.90;;;6.70;99.90;;;;;;6279218;22;20052;-88
2022/11/17 16:52:36;;;;;;;7.60;3.95;;;6.70;99.90;;;;;;6283203;22;20015;-88
2022/11/17 16:55:01;;;;;;;6.20;3.15;;;6.80;99.90;;;;;;6289721;22;20449;-92
2022/11/17 16:57:27;;;;;;;7.73;4.03;;;6.80;99.90;;;;;;6246983;22;20030;-90
2022/11/17 16:59:54;;;;;;;6.93;4.00;;;6.80;99.90;;;;;;6275456;22;20015;-91
2022/11/17 17:02:20;;;;;;;;;;;6.80;99.90;;;;;;6228653;22;20015;-92
2022/11/17 17:04:45;;;;;;;6.63;3.90;;;6.80;99.90;;;;;;6257303;22;20380;-90
2022/11/17 17:07:12;;;;;;;6.70;3.87;;;6.80;99.90;;;;;;6232336;22;20464;-91
2022/11/17 17:09:38;;;;;;;6.82;3.72;;;6.80;99.90;;;;;;6258377;22;20015;-89
2022/11/17 17:12:07;;;;;;;7.15;3.95;;;6.80;99.90;;;;;;6283376;22;20448;-89
2022/11/17 17:14:32;;;;;;;8.53;4.77;;;6.80;99.90;;;;;;6256178;22;20078;-91